Time;durP1;ratioP1;P1;durP2;ratioP2;P2;SDS_P1;SDS_P2;PMS_P1;PMS_P2;Temp;Humidity;BMP_temperature;BMP_pressure;BME280_temperature;BME280_humidity;BME280_pressure;Samples;Min_cycle;Max_cycle;Signal;HPM_P1;HPM_P2
2024/02/26 00:01:43;;;;;;;7.18;3.28;;;;;;;;;;5079142;28;20039;-56
2024/02/26 00:04:09;;;;;;;8.60;3.22;;;;;;;;;;5087931;28;20024;-56
2024/02/26 00:06:36;;;;;;;6.47;3.05;;;;;;;;;;5080675;28;20036;-56
2024/02/26 00:09:05;;;;;;;4.25;2.90;;;;;;;;;;5093153;28;20056;-57
2024/02/26 00:11:31;;;;;;;5.43;3.55;;;;;;;;;;5074843;28;20067;-57
2024/02/26 00:13:58;;;;;;;7.10;2.70;;;;;;;;;;5079974;28;20383;-56
2024/02/26 00:16:24;;;;;;;8.13;3.30;;;;;;;;;;5093948;28;20028;-55
2024/02/26 00:18:50;;;;;;;6.32;2.88;;;;;;;;;;5115283;28;20050;-51
2024/02/26 00:21:16;;;;;;;5.28;3.00;;;;;;;;;;5104272;28;20111;-50
2024/02/26 00:23:42;;;;;;;5.90;3.35;;;;;;;;;;5106657;28;20034;-52
2024/02/26 00:26:08;;;;;;;7.45;3.30;;;;;;;;;;5095357;28;20032;-51
2024/02/26 00:28:34;;;;;;;6.60;3.33;;;;;;;;;;5114338;28;20564;-51
2024/02/26 00:31:00;;;;;;;4.85;2.88;;;;;;;;;;5107723;28;20110;-51
2024/02/26 00:33:26;;;;;;;7.38;3.60;;;;;;;;;;5097611;28;20020;-51
2024/02/26 00:35:51;;;;;;;14.77;3.90;;;;;;;;;;5113100;28;20115;-50
2024/02/26 00:38:17;;;;;;;5.97;3.28;;;;;;;;;;5100633;28;20503;-51
2024/02/26 00:40:43;;;;;;;4.78;2.65;;;;;;;;;;5098524;28;20475;-52
2024/02/26 00:43:09;;;;;;;6.18;2.78;;;;;;;;;;5094484;28;20025;-48
2024/02/26 00:45:35;;;;;;;5.03;2.63;;;;;;;;;;5093321;28;20475;-50
2024/02/26 00:48:04;;;;;;;6.53;3.22;;;;;;;;;;5093586;28;20039;-50
2024/02/26 00:50:31;;;;;;;6.68;3.40;;;;;;;;;;5093449;28;20472;-48
2024/02/26 00:52:57;;;;;;;5.50;3.13;;;;;;;;;;5093131;28;20119;-48
2024/02/26 00:55:23;;;;;;;5.15;3.08;;;;;;;;;;5092410;28;20463;-49
2024/02/26 00:57:49;;;;;;;5.63;2.78;;;;;;;;;;5087277;28;20024;-51
2024/02/26 01:00:15;;;;;;;3.88;2.20;;;;;;;;;;5102064;28;20028;-52
2024/02/26 01:02:50;;;;;;;5.13;2.78;;;;;;;;;;5087565;28;20032;-52
2024/02/26 01:05:16;;;;;;;5.57;2.60;;;;;;;;;;5111005;28;20155;-51
2024/02/26 01:07:42;;;;;;;8.15;3.25;;;;;;;;;;5112298;28;20039;-51
2024/02/26 01:10:08;;;;;;;5.40;3.28;;;;;;;;;;5112502;28;20045;-50
2024/02/26 01:12:35;;;;;;;5.03;3.35;;;;;;;;;;5111756;28;20474;-55
2024/02/26 01:15:02;;;;;;;4.78;2.78;;;;;;;;;;5111850;28;20024;-51
2024/02/26 01:17:28;;;;;;;6.55;2.88;;;;;;;;;;5105843;28;20407;-57
2024/02/26 01:19:54;;;;;;;5.15;2.97;;;;;;;;;;5093234;28;20024;-56
2024/02/26 01:22:20;;;;;;;7.90;3.20;;;;;;;;;;5094013;28;20024;-56
2024/02/26 01:24:47;;;;;;;4.85;2.85;;;;;;;;;;5107682;28;20390;-55
2024/02/26 01:27:14;;;;;;;4.97;2.65;;;;;;;;;;5107535;28;20394;-49
2024/02/26 01:29:40;;;;;;;5.25;2.72;;;;;;;;;;5099162;28;20536;-52
2024/02/26 01:32:06;;;;;;;5.07;2.50;;;;;;;;;;5111342;28;20031;-50
2024/02/26 01:34:32;;;;;;;5.53;2.80;;;;;;;;;;5113277;28;20036;-49
2024/02/26 01:36:58;;;;;;;3.15;2.17;;;;;;;;;;5083289;28;20029;-51
2024/02/26 01:39:24;;;;;;;6.47;2.50;;;;;;;;;;5094022;28;20036;-50
2024/02/26 01:41:50;;;;;;;5.78;2.60;;;;;;;;;;5095863;28;20213;-50
2024/02/26 01:44:16;;;;;;;5.47;2.72;;;;;;;;;;5097473;28;20545;-49
2024/02/26 01:46:42;;;;;;;7.68;3.30;;;;;;;;;;5097585;28;20028;-50
2024/02/26 01:49:09;;;;;;;7.30;3.15;;;;;;;;;;5112877;28;20033;-49
2024/02/26 01:51:36;;;;;;;6.28;3.47;;;;;;;;;;5100178;28;20052;-49
2024/02/26 01:54:03;;;;;;;6.88;3.72;;;;;;;;;;5102717;28;20024;-52
2024/02/26 01:56:31;;;;;;;4.93;2.80;;;;;;;;;;5099529;28;20116;-49
2024/02/26 01:58:57;;;;;;;8.57;3.33;;;;;;;;;;5108982;28;20035;-51
2024/02/26 02:01:26;;;;;;;8.45;3.17;;;;;;;;;;5090919;28;20044;-56
2024/02/26 02:03:52;;;;;;;4.90;2.67;;;;;;;;;;5110352;28;20023;-56
2024/02/26 02:06:18;;;;;;;5.60;3.00;;;;;;;;;;5099816;28;20461;-56
2024/02/26 02:08:44;;;;;;;5.15;3.13;;;;;;;;;;5101777;28;20016;-55
2024/02/26 02:11:14;;;;;;;6.32;3.17;;;;;;;;;;5092762;28;20031;-57
2024/02/26 02:13:40;;;;;;;5.68;3.40;;;;;;;;;;5083908;28;20032;-57
2024/02/26 02:16:06;;;;;;;8.00;2.85;;;;;;;;;;5101927;28;20030;-56
2024/02/26 02:18:32;;;;;;;5.82;2.90;;;;;;;;;;5098148;28;20115;-57
2024/02/26 02:21:00;;;;;;;6.88;3.00;;;;;;;;;;5089136;28;20031;-56
2024/02/26 02:23:26;;;;;;;4.88;3.10;;;;;;;;;;5101179;28;20103;-56
2024/02/26 02:25:53;;;;;;;3.55;2.80;;;;;;;;;;5074340;28;20032;-56
2024/02/26 02:28:19;;;;;;;7.03;3.10;;;;;;;;;;5072281;28;20028;-56
2024/02/26 02:30:45;;;;;;;7.60;3.38;;;;;;;;;;5096316;28;20038;-63
2024/02/26 02:33:12;;;;;;;8.30;2.80;;;;;;;;;;5098998;28;20019;-56
2024/02/26 02:35:38;;;;;;;4.28;2.67;;;;;;;;;;5094279;28;20106;-56
2024/02/26 02:38:04;;;;;;;5.50;2.63;;;;;;;;;;5089923;28;20093;-57
2024/02/26 02:40:30;;;;;;;4.55;2.80;;;;;;;;;;5094681;28;20489;-56
2024/02/26 02:42:56;;;;;;;4.47;2.75;;;;;;;;;;5101997;28;20028;-56
2024/02/26 02:45:22;;;;;;;3.40;2.65;;;;;;;;;;5087472;28;20036;-55
2024/02/26 02:47:48;;;;;;;4.25;2.47;;;;;;;;;;5093367;28;20380;-57
2024/02/26 02:50:14;;;;;;;5.05;3.03;;;;;;;;;;5101156;28;20077;-56
2024/02/26 02:52:40;;;;;;;6.38;3.15;;;;;;;;;;5112163;28;20020;-56
2024/02/26 02:55:06;;;;;;;5.05;3.05;;;;;;;;;;5110842;28;20047;-56
2024/02/26 02:57:33;;;;;;;3.70;2.50;;;;;;;;;;5085234;28;20028;-56
2024/02/26 02:59:59;;;;;;;8.02;3.05;;;;;;;;;;5099749;28;20024;-56
2024/02/26 03:02:25;;;;;;;5.78;2.63;;;;;;;;;;5091713;28;20039;-56
2024/02/26 03:04:51;;;;;;;5.60;2.78;;;;;;;;;;5060211;28;20024;-56
2024/02/26 03:07:17;;;;;;;4.70;2.92;;;;;;;;;;5085513;28;20032;-59
2024/02/26 03:09:43;;;;;;;4.88;2.80;;;;;;;;;;5084849;28;20377;-56
2024/02/26 03:12:09;;;;;;;8.65;3.28;;;;;;;;;;5083355;28;20033;-56
2024/02/26 03:14:35;;;;;;;6.18;3.10;;;;;;;;;;5085519;28;20026;-55
2024/02/26 03:17:01;;;;;;;7.95;3.60;;;;;;;;;;5071286;28;20055;-56
2024/02/26 03:19:27;;;;;;;5.93;3.67;;;;;;;;;;5082697;28;20537;-56
2024/02/26 03:21:53;;;;;;;6.35;3.78;;;;;;;;;;5103466;28;20068;-57
2024/02/26 03:24:19;;;;;;;5.28;2.92;;;;;;;;;;5105724;28;20035;-56
2024/02/26 03:26:45;;;;;;;5.63;3.42;;;;;;;;;;5090218;28;20028;-56
2024/02/26 03:29:11;;;;;;;6.93;3.03;;;;;;;;;;5096572;28;20047;-56
2024/02/26 03:31:37;;;;;;;4.53;2.85;;;;;;;;;;5088956;28;20043;-56
2024/02/26 03:34:03;;;;;;;4.10;2.55;;;;;;;;;;5086775;28;20025;-56
2024/02/26 03:36:29;;;;;;;6.13;2.65;;;;;;;;;;5099835;28;20078;-56
2024/02/26 03:38:55;;;;;;;4.35;2.35;;;;;;;;;;5107547;28;20041;-56
2024/02/26 03:41:21;;;;;;;4.57;3.30;;;;;;;;;;5088574;28;20025;-56
2024/02/26 03:43:47;;;;;;;8.90;3.10;;;;;;;;;;5097219;28;20047;-56
2024/02/26 03:46:13;;;;;;;6.70;3.60;;;;;;;;;;5100856;28;20027;-57
2024/02/26 03:48:40;;;;;;;5.72;2.90;;;;;;;;;;5100821;28;20028;-56
2024/02/26 03:51:06;;;;;;;5.63;2.80;;;;;;;;;;5097292;28;20040;-56
2024/02/26 03:53:32;;;;;;;5.35;3.22;;;;;;;;;;5079766;28;20487;-57
2024/02/26 03:55:58;;;;;;;3.80;2.75;;;;;;;;;;5099222;28;20368;-56
2024/02/26 03:58:24;;;;;;;5.20;3.35;;;;;;;;;;5091464;28;20395;-56
2024/02/26 04:00:50;;;;;;;6.93;3.30;;;;;;;;;;5090898;28;20372;-55
2024/02/26 04:03:15;;;;;;;7.68;3.53;;;;;;;;;;5114081;28;20027;-56
2024/02/26 04:05:41;;;;;;;5.75;3.22;;;;;;;;;;5096241;28;20059;-56
2024/02/26 04:08:07;;;;;;;6.25;3.75;;;;;;;;;;5108509;28;20024;-57
2024/02/26 04:10:40;;;;;;;7.18;3.25;;;;;;;;;;5095276;28;20559;-57
2024/02/26 04:13:07;;;;;;;7.25;3.67;;;;;;;;;;5087417;28;20090;-56
2024/02/26 04:15:33;;;;;;;4.88;3.17;;;;;;;;;;5090789;28;20029;-57
2024/02/26 04:17:59;;;;;;;10.75;3.47;;;;;;;;;;5089495;28;20044;-55
2024/02/26 04:20:25;;;;;;;8.82;3.80;;;;;;;;;;5095727;28;20039;-55
2024/02/26 04:22:51;;;;;;;9.20;3.17;;;;;;;;;;5100019;28;20498;-55
2024/02/26 04:25:17;;;;;;;7.20;3.30;;;;;;;;;;5111191;28;20061;-56
2024/02/26 04:27:43;;;;;;;5.47;3.30;;;;;;;;;;5105692;28;20549;-56
2024/02/26 04:30:09;;;;;;;6.03;4.03;;;;;;;;;;5093026;28;20427;-53
2024/02/26 04:32:35;;;;;;;6.45;4.00;;;;;;;;;;5091058;28;20040;-53
2024/02/26 04:35:02;;;;;;;7.18;3.55;;;;;;;;;;5101265;28;20479;-55
2024/02/26 04:37:31;;;;;;;6.85;3.67;;;;;;;;;;5094043;28;20032;-54
2024/02/26 04:40:00;;;;;;;6.28;3.75;;;;;;;;;;5101577;28;20035;-55
2024/02/26 04:42:26;;;;;;;8.45;3.97;;;;;;;;;;5109835;28;20024;-55
2024/02/26 04:44:53;;;;;;;6.38;3.97;;;;;;;;;;5106767;28;20387;-55
2024/02/26 04:47:19;;;;;;;6.15;3.03;;;;;;;;;;5096734;28;20031;-55
2024/02/26 04:49:45;;;;;;;6.50;3.75;;;;;;;;;;5087257;28;20027;-56
2024/02/26 04:52:10;;;;;;;4.40;2.95;;;;;;;;;;5096680;28;20025;-55
2024/02/26 04:54:36;;;;;;;4.28;3.03;;;;;;;;;;5092648;28;20149;-55
2024/02/26 04:57:02;;;;;;;6.05;3.13;;;;;;;;;;5088528;28;20024;-56
2024/02/26 04:59:28;;;;;;;8.15;3.47;;;;;;;;;;5082354;28;20020;-55
2024/02/26 05:01:54;;;;;;;5.40;2.97;;;;;;;;;;5099581;28;20383;-53
2024/02/26 05:04:20;;;;;;;4.72;3.42;;;;;;;;;;5070308;28;20115;-55
2024/02/26 05:06:46;;;;;;;6.68;4.28;;;;;;;;;;5095255;28;20029;-55
2024/02/26 05:09:13;;;;;;;8.63;4.13;;;;;;;;;;5086722;28;20078;-55
2024/02/26 05:11:39;;;;;;;7.55;3.97;;;;;;;;;;5090186;28;20081;-56
2024/02/26 05:14:05;;;;;;;7.80;4.07;;;;;;;;;;5099375;28;20463;-55
2024/02/26 05:16:31;;;;;;;7.40;3.92;;;;;;;;;;5094207;28;20025;-56
2024/02/26 05:18:57;;;;;;;7.10;3.65;;;;;;;;;;5081846;28;20082;-55
2024/02/26 05:21:23;;;;;;;11.50;4.47;;;;;;;;;;5084431;28;20533;-55
2024/02/26 05:23:49;;;;;;;7.90;4.07;;;;;;;;;;5087288;28;20115;-55
2024/02/26 05:26:21;;;;;;;10.15;4.43;;;;;;;;;;5086980;28;20123;-54
2024/02/26 05:28:47;;;;;;;6.82;3.28;;;;;;;;;;5089123;28;20032;-55
2024/02/26 05:31:14;;;;;;;5.47;3.80;;;;;;;;;;5089961;28;20153;-55
2024/02/26 05:33:40;;;;;;;6.00;3.92;;;;;;;;;;5097212;28;20036;-54
2024/02/26 05:36:06;;;;;;;7.50;4.75;;;;;;;;;;5091837;28;20060;-55
2024/02/26 05:38:32;;;;;;;7.78;4.03;;;;;;;;;;5083612;28;20103;-55
2024/02/26 05:40:58;;;;;;;7.57;3.83;;;;;;;;;;5084814;28;20035;-52
2024/02/26 05:43:25;;;;;;;6.05;3.92;;;;;;;;;;5080734;28;20035;-53
2024/02/26 05:45:51;;;;;;;6.70;4.13;;;;;;;;;;5087734;28;20020;-54
2024/02/26 05:48:17;;;;;;;6.80;4.32;;;;;;;;;;5074051;28;20044;-55
2024/02/26 05:50:43;;;;;;;8.07;4.07;;;;;;;;;;5095400;28;20055;-54
2024/02/26 05:53:09;;;;;;;7.82;4.20;;;;;;;;;;5087362;28;20028;-55
2024/02/26 05:55:35;;;;;;;8.15;3.92;;;;;;;;;;5087504;28;20109;-54
2024/02/26 05:58:01;;;;;;;9.23;4.25;;;;;;;;;;5094976;28;20472;-55
2024/02/26 06:00:27;;;;;;;7.45;4.38;;;;;;;;;;5092856;28;20355;-55
2024/02/26 06:02:53;;;;;;;12.75;4.72;;;;;;;;;;5098006;28;20038;-55
2024/02/26 06:05:19;;;;;;;11.75;5.05;;;;;;;;;;5088087;28;20028;-55
2024/02/26 06:07:45;;;;;;;12.43;4.57;;;;;;;;;;5079724;28;20035;-55
2024/02/26 06:10:13;;;;;;;8.25;4.90;;;;;;;;;;5084918;28;20056;-54
2024/02/26 06:12:40;;;;;;;8.88;4.55;;;;;;;;;;5091599;28;20394;-55
2024/02/26 06:15:06;;;;;;;9.35;5.05;;;;;;;;;;5085536;28;20047;-55
2024/02/26 06:17:32;;;;;;;8.80;4.65;;;;;;;;;;5095853;28;20048;-55
2024/02/26 06:19:59;;;;;;;7.70;4.18;;;;;;;;;;5096004;28;20032;-56
2024/02/26 06:22:25;;;;;;;8.43;4.47;;;;;;;;;;5087277;28;20034;-52
2024/02/26 06:24:51;;;;;;;13.50;4.95;;;;;;;;;;5083354;28;20032;-54
2024/02/26 06:27:17;;;;;;;13.00;5.20;;;;;;;;;;5087111;28;20039;-54
2024/02/26 06:29:43;;;;;;;12.95;5.53;;;;;;;;;;5078929;28;20456;-54
2024/02/26 06:32:09;;;;;;;8.25;5.05;;;;;;;;;;5098316;28;20035;-55
2024/02/26 06:34:35;;;;;;;9.38;4.88;;;;;;;;;;5080799;28;20028;-55
2024/02/26 06:37:01;;;;;;;11.70;5.57;;;;;;;;;;5079840;28;20032;-56
2024/02/26 06:39:27;;;;;;;8.60;4.75;;;;;;;;;;5080642;28;20373;-56
2024/02/26 06:41:59;;;;;;;8.50;5.43;;;;;;;;;;5099755;28;20028;-56
2024/02/26 06:44:26;;;;;;;9.82;5.07;;;;;;;;;;5091469;28;20020;-57
2024/02/26 06:46:52;;;;;;;9.48;5.45;;;;;;;;;;5106272;28;20387;-56
2024/02/26 06:49:18;;;;;;;10.32;5.97;;;;;;;;;;5086157;28;20020;-54
2024/02/26 06:51:44;;;;;;;9.23;5.25;;;;;;;;;;5087861;28;20107;-56
2024/02/26 06:54:09;;;;;;;8.70;5.63;;;;;;;;;;5080571;28;20020;-56
2024/02/26 06:56:35;;;;;;;11.80;5.88;;;;;;;;;;5083266;28;20024;-56
2024/02/26 06:59:01;;;;;;;8.15;5.32;;;;;;;;;;5085453;28;20100;-56
2024/02/26 07:01:28;;;;;;;12.90;6.35;;;;;;;;;;5088110;28;20029;-56
2024/02/26 07:03:54;;;;;;;14.35;6.55;;;;;;;;;;5087094;28;20353;-56
2024/02/26 07:06:20;;;;;;;11.57;6.22;;;;;;;;;;5095770;28;20043;-55
2024/02/26 07:08:46;;;;;;;11.38;6.68;;;;;;;;;;5081112;28;20392;-56
2024/02/26 07:11:12;;;;;;;14.45;6.57;;;;;;;;;;5092173;28;20031;-56
2024/02/26 07:13:38;;;;;;;14.93;6.68;;;;;;;;;;5099312;28;20398;-56
2024/02/26 07:16:04;;;;;;;15.63;6.55;;;;;;;;;;5088088;28;20408;-56
2024/02/26 07:18:30;;;;;;;9.00;6.28;;;;;;;;;;5094218;28;20514;-57
2024/02/26 07:20:56;;;;;;;12.82;7.38;;;;;;;;;;5104739;28;20046;-56
2024/02/26 07:23:22;;;;;;;14.13;6.95;;;;;;;;;;5094377;28;20646;-56
2024/02/26 07:25:50;;;;;;;16.33;7.10;;;;;;;;;;5093396;28;20059;-57
2024/02/26 07:28:16;;;;;;;14.45;6.60;;;;;;;;;;5100046;28;20073;-57
2024/02/26 07:30:42;;;;;;;9.52;5.50;;;;;;;;;;5092358;28;20032;-57
2024/02/26 07:33:08;;;;;;;9.85;5.72;;;;;;;;;;5087740;28;20028;-56
2024/02/26 07:35:36;;;;;;;12.20;6.97;;;;;;;;;;5093535;28;20035;-56
2024/02/26 07:38:02;;;;;;;10.05;6.03;;;;;;;;;;5093824;28;20446;-56
2024/02/26 07:40:28;;;;;;;12.77;5.57;;;;;;;;;;5093584;28;20039;-56
2024/02/26 07:42:54;;;;;;;12.77;5.70;;;;;;;;;;5089717;28;20494;-57
2024/02/26 07:45:20;;;;;;;9.98;5.53;;;;;;;;;;5094172;28;20085;-57
2024/02/26 07:47:47;;;;;;;11.63;5.55;;;;;;;;;;5090418;28;20107;-49
2024/02/26 07:50:13;;;;;;;11.02;5.85;;;;;;;;;;5091244;28;20047;-51
2024/02/26 07:52:39;;;;;;;11.93;6.22;;;;;;;;;;5093826;28;20447;-49
2024/02/26 07:55:06;;;;;;;12.00;5.47;;;;;;;;;;5094335;28;20051;-49
2024/02/26 07:57:33;;;;;;;12.32;5.97;;;;;;;;;;5100266;28;20106;-51
2024/02/26 07:59:59;;;;;;;11.15;5.45;;;;;;;;;;5093417;28;20024;-51
2024/02/26 08:02:25;;;;;;;11.23;5.43;;;;;;;;;;5111951;28;20031;-50
2024/02/26 08:04:51;;;;;;;11.77;5.85;;;;;;;;;;5093108;28;20043;-47
2024/02/26 08:07:17;;;;;;;13.88;6.50;;;;;;;;;;5093804;28;20028;-47
2024/02/26 08:09:43;;;;;;;10.05;6.07;;;;;;;;;;5093876;28;20486;-49
2024/02/26 08:12:09;;;;;;;11.27;6.18;;;;;;;;;;5085707;28;20036;-48
2024/02/26 08:14:35;;;;;;;13.38;6.40;;;;;;;;;;5087461;28;20053;-49
2024/02/26 08:17:01;;;;;;;12.90;7.18;;;;;;;;;;5094103;28;20056;-49
2024/02/26 08:19:27;;;;;;;17.95;7.63;;;;;;;;;;5099967;28;20036;-50
2024/02/26 08:21:54;;;;;;;17.02;8.45;;;;;;;;;;5085479;28;20060;-49
2024/02/26 08:24:20;;;;;;;12.77;7.72;;;;;;;;;;5077849;28;20031;-50
2024/02/26 08:26:46;;;;;;;13.52;7.60;;;;;;;;;;5086211;28;20024;-48
2024/02/26 08:29:12;;;;;;;10.88;7.65;;;;;;;;;;5091647;28;20028;-51
2024/02/26 08:31:38;;;;;;;16.85;8.48;;;;;;;;;;5087942;28;20108;-52
2024/02/26 08:34:04;;;;;;;13.93;7.93;;;;;;;;;;5092975;28;20475;-48
2024/02/26 08:36:34;;;;;;;17.20;9.15;;;;;;;;;;5093277;28;20035;-50
2024/02/26 08:39:00;;;;;;;16.08;8.25;;;;;;;;;;5089278;28;20024;-50
2024/02/26 08:41:27;;;;;;;13.35;8.48;;;;;;;;;;5079570;28;20031;-51
2024/02/26 08:43:53;;;;;;;16.45;9.88;;;;;;;;;;5087545;28;20036;-51
2024/02/26 08:46:19;;;;;;;19.30;9.10;;;;;;;;;;5090069;28;20039;-50
2024/02/26 08:48:45;;;;;;;15.00;8.48;;;;;;;;;;5088018;28;20024;-49
2024/02/26 08:51:10;;;;;;;20.23;11.05;;;;;;;;;;5091241;28;20039;-48
2024/02/26 08:53:37;;;;;;;16.40;9.57;;;;;;;;;;5087389;28;20032;-48
2024/02/26 08:56:03;;;;;;;22.10;11.20;;;;;;;;;;5092480;28;20024;-49
2024/02/26 08:58:29;;;;;;;19.42;10.25;;;;;;;;;;5095727;28;20024;-54
2024/02/26 09:00:55;;;;;;;16.38;10.70;;;;;;;;;;5098543;28;20024;-55
2024/02/26 09:03:21;;;;;;;23.85;11.70;;;;;;;;;;5092682;28;20024;-54
2024/02/26 09:05:47;;;;;;;19.95;11.57;;;;;;;;;;5096786;28;20024;-54
2024/02/26 09:08:13;;;;;;;20.63;11.02;;;;;;;;;;5083931;28;20028;-53
2024/02/26 09:10:39;;;;;;;23.30;10.68;;;;;;;;;;5090245;28;20028;-54
2024/02/26 09:13:05;;;;;;;19.38;11.38;;;;;;;;;;5083910;28;20502;-54
2024/02/26 09:15:31;;;;;;;21.13;11.23;;;;;;;;;;5083248;28;20550;-54
2024/02/26 09:17:58;;;;;;;17.67;11.13;;;;;;;;;;5094015;28;20130;-54
2024/02/26 09:20:24;;;;;;;18.42;9.88;;;;;;;;;;5089833;28;20165;-54
2024/02/26 09:22:50;;;;;;;18.00;10.10;;;;;;;;;;5084118;28;20071;-54
2024/02/26 09:25:17;;;;;;;16.45;9.85;;;;;;;;;;5095237;28;20156;-54
2024/02/26 09:27:43;;;;;;;16.80;9.75;;;;;;;;;;5082482;28;20473;-54
2024/02/26 09:30:10;;;;;;;16.52;8.93;;;;;;;;;;5084723;28;20072;-52
2024/02/26 09:32:36;;;;;;;17.95;9.00;;;;;;;;;;5091730;28;20032;-54
2024/02/26 09:35:02;;;;;;;17.38;9.93;;;;;;;;;;5091703;28;20089;-54
2024/02/26 09:37:28;;;;;;;18.67;9.65;;;;;;;;;;5092147;28;20032;-54
2024/02/26 09:39:54;;;;;;;15.30;8.90;;;;;;;;;;5091910;28;20024;-54
2024/02/26 09:42:20;;;;;;;15.32;9.13;;;;;;;;;;5094637;28;20032;-55
2024/02/26 09:44:46;;;;;;;15.80;8.68;;;;;;;;;;5086405;28;20097;-54
2024/02/26 09:47:15;;;;;;;16.08;8.60;;;;;;;;;;5088237;28;20756;-54
2024/02/26 09:49:43;;;;;;;16.45;8.80;;;;;;;;;;5088588;28;20418;-54
2024/02/26 09:52:09;;;;;;;16.40;8.57;;;;;;;;;;5096643;28;20094;-54
2024/02/26 09:54:35;;;;;;;12.32;7.80;;;;;;;;;;5079233;28;20016;-55
2024/02/26 09:57:04;;;;;;;14.73;7.78;;;;;;;;;;5090556;28;20020;-54
2024/02/26 09:59:30;;;;;;;16.55;8.70;;;;;;;;;;5093413;28;20123;-55
2024/02/26 10:01:57;;;;;;;17.98;8.30;;;;;;;;;;5091043;28;20051;-55
2024/02/26 10:04:23;;;;;;;14.27;8.32;;;;;;;;;;5089146;28;20032;-55
2024/02/26 10:06:49;;;;;;;17.30;9.05;;;;;;;;;;5091196;28;20383;-55
2024/02/26 10:09:16;;;;;;;19.05;8.68;;;;;;;;;;5083060;28;20032;-54
2024/02/26 10:11:43;;;;;;;15.48;8.45;;;;;;;;;;5090604;28;20053;-55
2024/02/26 10:14:09;;;;;;;13.32;8.43;;;;;;;;;;5084143;28;20024;-54
2024/02/26 10:16:36;;;;;;;16.17;8.27;;;;;;;;;;5087942;28;20851;-55
2024/02/26 10:19:02;;;;;;;15.52;7.88;;;;;;;;;;5085651;28;20028;-54
2024/02/26 10:21:28;;;;;;;13.35;7.88;;;;;;;;;;5088733;28;20111;-55
2024/02/26 10:23:54;;;;;;;15.85;7.68;;;;;;;;;;5092115;28;20041;-55
2024/02/26 10:26:20;;;;;;;16.58;7.85;;;;;;;;;;5098506;28;20472;-55
2024/02/26 10:28:46;;;;;;;16.02;7.95;;;;;;;;;;5087543;28;20029;-50
2024/02/26 10:31:15;;;;;;;12.02;7.38;;;;;;;;;;5076662;28;20056;-53
2024/02/26 10:33:41;;;;;;;16.13;9.10;;;;;;;;;;5068634;28;20021;-50
2024/02/26 10:36:08;;;;;;;15.80;9.50;;;;;;;;;;5090632;28;20024;-55
2024/02/26 10:38:34;;;;;;;18.55;9.95;;;;;;;;;;5084737;28;20115;-50
2024/02/26 10:41:02;;;;;;;16.23;9.18;;;;;;;;;;5084341;28;20484;-52
2024/02/26 10:43:28;;;;;;;17.70;8.98;;;;;;;;;;5086554;28;20024;-52
2024/02/26 10:45:57;;;;;;;12.10;7.78;;;;;;;;;;5087674;28;20100;-54
2024/02/26 10:48:23;;;;;;;16.17;8.25;;;;;;;;;;5085507;28;20031;-49
2024/02/26 10:50:50;;;;;;;19.48;8.48;;;;;;;;;;5091054;28;20028;-52
2024/02/26 10:53:17;;;;;;;14.05;8.00;;;;;;;;;;5095247;28;20452;-51
2024/02/26 10:55:46;;;;;;;14.55;7.63;;;;;;;;;;5107840;28;20032;-49
2024/02/26 10:58:12;;;;;;;10.07;6.88;;;;;;;;;;5096177;28;20505;-52
2024/02/26 11:00:38;;;;;;;15.65;6.78;;;;;;;;;;5095907;28;20025;-51
2024/02/26 11:03:05;;;;;;;10.05;6.38;;;;;;;;;;5089112;28;20040;-51
2024/02/26 11:05:33;;;;;;;11.75;7.20;;;;;;;;;;5090465;28;20024;-49
2024/02/26 11:08:00;;;;;;;12.27;8.07;;;;;;;;;;5069815;28;20032;-51
2024/02/26 11:10:27;;;;;;;10.52;6.45;;;;;;;;;;5085177;28;20482;-54
2024/02/26 11:12:53;;;;;;;10.63;7.32;;;;;;;;;;5080675;28;20028;-48
2024/02/26 11:15:20;;;;;;;13.88;7.28;;;;;;;;;;5094623;28;20024;-51
2024/02/26 11:17:46;;;;;;;9.93;6.57;;;;;;;;;;5090733;28;20092;-53
2024/02/26 11:20:13;;;;;;;10.93;6.15;;;;;;;;;;5100328;28;20020;-50
2024/02/26 11:22:39;;;;;;;10.45;6.63;;;;;;;;;;5082182;28;20041;-54
2024/02/26 11:25:06;;;;;;;15.02;6.38;;;;;;;;;;5081006;28;20047;-49
2024/02/26 11:27:36;;;;;;;12.63;6.18;;;;;;;;;;5084978;28;20169;-53
2024/02/26 11:30:04;;;;;;;11.05;6.47;;;;;;;;;;5083658;28;20024;-54
2024/02/26 11:32:31;;;;;;;10.20;6.03;;;;;;;;;;5081884;28;20195;-51
2024/02/26 11:34:57;;;;;;;11.50;6.22;;;;;;;;;;5090383;28;20028;-52
2024/02/26 11:37:24;;;;;;;11.10;5.80;;;;;;;;;;5090244;28;20116;-57
2024/02/26 11:39:52;;;;;;;12.88;6.47;;;;;;;;;;5086199;28;20427;-56
2024/02/26 11:42:18;;;;;;;12.27;6.28;;;;;;;;;;5098828;28;20186;-57
2024/02/26 11:44:44;;;;;;;10.70;5.93;;;;;;;;;;5098543;28;20031;-56
2024/02/26 11:47:20;;;;;;;10.18;5.38;;;;;;;;;;5094334;28;20451;-51
2024/02/26 11:49:46;;;;;;;14.18;6.25;;;;;;;;;;5094152;28;20035;-52
2024/02/26 11:52:13;;;;;;;11.27;6.97;;;;;;;;;;5094035;28;20043;-50
2024/02/26 11:54:40;;;;;;;11.52;5.93;;;;;;;;;;5088423;28;20077;-51
2024/02/26 11:57:21;;;;;;;11.55;5.80;;;;;;;;;;5084696;28;20027;-50
2024/02/26 11:59:48;;;;;;;9.98;4.95;;;;;;;;;;5091871;28;20090;-49
2024/02/26 12:02:34;;;;;;;12.20;5.57;;;;;;;;;;5081504;28;20066;-52
2024/02/26 12:05:00;;;;;;;8.30;4.93;;;;;;;;;;5095323;28;20048;-51
2024/02/26 12:07:26;;;;;;;8.02;4.93;;;;;;;;;;5091539;28;20056;-52
2024/02/26 12:09:52;;;;;;;9.10;4.68;;;;;;;;;;5087753;28;20070;-51
2024/02/26 12:12:19;;;;;;;6.35;4.25;;;;;;;;;;5093467;28;20028;-52
2024/02/26 12:14:52;;;;;;;9.35;4.78;;;;;;;;;;5102270;28;20031;-50
2024/02/26 12:17:22;;;;;;;8.00;4.00;;;;;;;;;;5080737;28;20207;-53
2024/02/26 12:19:48;;;;;;;12.82;5.28;;;;;;;;;;5088585;28;20488;-51
2024/02/26 12:22:15;;;;;;;9.45;4.20;;;;;;;;;;5078231;28;20075;-53
2024/02/26 12:24:41;;;;;;;8.00;4.32;;;;;;;;;;5087697;28;20039;-51
2024/02/26 12:27:07;;;;;;;6.57;4.13;;;;;;;;;;5094142;28;20114;-51
2024/02/26 12:29:33;;;;;;;8.85;4.28;;;;;;;;;;5094378;28;20032;-52
2024/02/26 12:31:59;;;;;;;7.57;3.78;;;;;;;;;;5095772;28;20032;-50
2024/02/26 12:34:26;;;;;;;8.40;4.18;;;;;;;;;;5090646;28;20111;-52
2024/02/26 12:36:53;;;;;;;6.28;3.85;;;;;;;;;;5095839;28;20020;-51
2024/02/26 12:39:20;;;;;;;7.00;4.05;;;;;;;;;;5086741;28;20028;-52
2024/02/26 12:41:50;;;;;;;7.90;4.18;;;;;;;;;;5085234;28;20399;-52
2024/02/26 12:44:16;;;;;;;8.15;3.72;;;;;;;;;;5091556;28;20344;-52
2024/02/26 12:46:42;;;;;;;8.23;3.80;;;;;;;;;;5096076;28;20039;-56
2024/02/26 12:49:08;;;;;;;5.53;3.35;;;;;;;;;;5092474;28;20392;-56
2024/02/26 12:51:34;;;;;;;7.30;3.95;;;;;;;;;;5085270;28;20035;-56
2024/02/26 12:54:01;;;;;;;6.25;3.55;;;;;;;;;;5084399;28;20058;-56
2024/02/26 12:56:28;;;;;;;6.78;3.95;;;;;;;;;;5087721;28;20563;-53
2024/02/26 12:58:55;;;;;;;7.78;4.20;;;;;;;;;;5088757;28;20025;-58
2024/02/26 13:01:23;;;;;;;7.05;3.83;;;;;;;;;;5087509;28;20059;-58
2024/02/26 13:03:50;;;;;;;8.25;4.63;;;;;;;;;;5070163;28;20093;-58
2024/02/26 13:06:16;;;;;;;6.82;4.00;;;;;;;;;;5091411;28;20520;-58
2024/02/26 13:08:42;;;;;;;7.30;4.25;;;;;;;;;;5092864;28;20500;-58
2024/02/26 13:11:08;;;;;;;7.90;4.22;;;;;;;;;;5080287;28;20071;-59
2024/02/26 13:13:35;;;;;;;8.43;3.97;;;;;;;;;;5087483;28;20069;-58
2024/02/26 13:16:02;;;;;;;10.73;5.07;;;;;;;;;;5091472;28;20035;-58
2024/02/26 13:18:31;;;;;;;9.50;4.30;;;;;;;;;;5095390;28;20032;-58
2024/02/26 13:21:06;;;;;;;5.93;3.67;;;;;;;;;;5096326;28;20107;-58
2024/02/26 13:23:32;;;;;;;8.20;3.72;;;;;;;;;;5091347;28;20028;-58
2024/02/26 13:25:58;;;;;;;6.40;3.47;;;;;;;;;;5094494;28;20039;-58
2024/02/26 13:28:27;;;;;;;6.28;3.30;;;;;;;;;;5077979;28;20103;-58
2024/02/26 13:30:56;;;;;;;7.05;3.63;;;;;;;;;;5084233;28;20034;-58
2024/02/26 13:33:22;;;;;;;5.95;3.10;;;;;;;;;;5091445;28;20032;-58
2024/02/26 13:35:48;;;;;;;3.75;2.60;;;;;;;;;;5097377;28;20030;-57
2024/02/26 13:38:14;;;;;;;4.38;2.60;;;;;;;;;;5092234;28;20028;-56
2024/02/26 13:40:40;;;;;;;5.25;2.47;;;;;;;;;;5091579;28;20058;-58
2024/02/26 13:43:06;;;;;;;6.43;2.30;;;;;;;;;;5091451;28;20024;-56
2024/02/26 13:45:36;;;;;;;3.97;1.92;;;;;;;;;;5095771;28;20542;-57
2024/02/26 13:48:04;;;;;;;4.05;2.50;;;;;;;;;;5086479;28;20028;-58
2024/02/26 13:50:30;;;;;;;7.03;2.83;;;;;;;;;;5083250;28;20040;-58
2024/02/26 13:52:57;;;;;;;5.60;2.53;;;;;;;;;;5080126;28;20442;-56
2024/02/26 13:55:25;;;;;;;4.53;2.28;;;;;;;;;;5085963;28;20127;-58
2024/02/26 13:57:53;;;;;;;4.15;2.22;;;;;;;;;;5092740;28;20131;-56
2024/02/26 14:00:19;;;;;;;3.72;2.05;;;;;;;;;;5092903;28;20384;-55
2024/02/26 14:02:45;;;;;;;6.78;2.10;;;;;;;;;;5095160;28;20360;-56
2024/02/26 14:05:11;;;;;;;2.20;1.40;;;;;;;;;;5080695;28;20031;-54
2024/02/26 14:07:37;;;;;;;2.92;1.48;;;;;;;;;;5075727;28;20115;-57
2024/02/26 14:10:03;;;;;;;2.63;1.42;;;;;;;;;;5098147;28;20480;-57
2024/02/26 14:12:29;;;;;;;4.93;1.60;;;;;;;;;;5099440;28;20044;-58
2024/02/26 14:14:55;;;;;;;3.38;1.40;;;;;;;;;;5105926;28;20080;-58
2024/02/26 14:17:22;;;;;;;2.90;1.20;;;;;;;;;;5093180;28;20331;-57
2024/02/26 14:19:49;;;;;;;7.07;1.23;;;;;;;;;;5079594;28;20028;-58
2024/02/26 14:22:16;;;;;;;2.80;1.33;;;;;;;;;;5091066;28;20031;-57
2024/02/26 14:24:42;;;;;;;3.00;1.60;;;;;;;;;;5081541;28;20089;-57
2024/02/26 14:27:15;;;;;;;3.45;1.38;;;;;;;;;;5072180;28;20392;-58
2024/02/26 14:29:42;;;;;;;4.05;1.48;;;;;;;;;;5076201;28;20024;-57
2024/02/26 14:32:08;;;;;;;2.33;1.30;;;;;;;;;;5078345;28;20119;-57
2024/02/26 14:34:34;;;;;;;4.35;1.85;;;;;;;;;;5077909;28;20032;-58